EUFO2: Eufaula Lake

Data processed at Sun Aug 02 23:09:36 2015 Central Daylight Time


All information presented herein is the property of the government of the United States of America and may be revised or deleted at any time without prior notice.
Dissemination of this information without the expressed written consent of the Public Affairs Office, Tulsa District U.S. Army Corps of Engineers is strictly prohibited.
These data are gathered electronically and, as presented, have not undergone any form of quality control. These data are not guaranteed to be valid or correct.
Go to home page.
Go to station list.
Go to station map.

Upstream stations:

Downstream station: Previous Day
Next Day
Current Day

Display graphics.
Display DCP transmissions.


    
    SHEF ID:       EUFO2     Eufaula Lake
    STATION TYPE:  RESERVOIR
    Flood Control Pool:  Bottom =  585.00, Top =  597.00
    
                   PRECIP ELEVATION   STORAGE   TW-ELEV    INFLOW   RELEASE  AIR-TEMP  WIND-DIRWIND-SPEED REL-HUMID SOLAR-RAD   VOLTAGE
                   INCHES      FEET      ACFT      FEET       CFS       CFS     DEG-F   DEGREES       MPH   PERCENT      W/M2     VOLTS
                     GOES      GOES      GOES      GOES  COMPRESQ    POWERQ      GOES      GOES      GOES      GOES      GOES      GOES
       (Cen)
    08/02 01:00      0.00    588.07   2440646    491.00      4232     20000     77.68     94.00      1.15     80.33      0.00     13.81
    08/02 02:00      0.00    588.06   2439614    490.97       232     20000     75.81     93.90      1.09     85.46      0.00     13.81
    08/02 03:00      0.00    588.04   2437552    490.99      1349     20000     74.05    100.50      1.37     86.38      0.00     13.81
    08/02 04:00      0.00    588.02   2435495    490.94      1667     20000     73.62    109.70      3.04     86.86      0.00     13.80
    08/02 05:00      0.00    588.01   2434464    490.97      1985     20000     73.40    111.90      3.43     91.32      0.00     13.80
    08/02 06:00      0.00    588.00   2433432    491.03      5985     20000     73.40    109.50      3.58     91.38      0.00     13.80
    08/02 07:00      0.00    587.98   2431421    490.88      9985     20000     73.40    113.70      3.82     91.64      5.00     13.80
    08/02 08:00      0.00    587.98   2431421    490.97      8992     20000     74.82    117.40      3.23     85.64     37.00     13.80
    08/02 09:00      0.00    587.98   2431421    490.96      9031     20000     78.89    111.60      2.73     72.58    103.00     13.80
    08/02 10:00      0.00    587.96   2429415    490.94     11738     20000     84.07    102.50      2.71     61.66    470.00     13.80
    08/02 11:00      0.00    587.95   2428409    490.94      7738     20000     86.70    114.60      2.34     46.46    535.00     13.80
    08/02 12:00      0.00    587.95   2428409    490.94      3738     20000     89.56    200.50      4.65     41.64    780.00     13.80
    08/02 13:00      0.00    587.94   2427403    490.95      3382     20000     90.21    199.50      5.69     38.22    922.00     13.80
    08/02 14:00      0.00    587.92   2425392    490.90      3026     20000     91.98    238.30      6.54     34.37    949.00     13.81
    08/02 15:00      0.00    587.92   2425392    490.90         0     20000     90.75    242.50      4.50     38.76    846.00     13.81
    08/02 16:00      0.00    587.90   2423386    490.93         0     20000     90.97    292.00      6.02     44.38    755.00     13.81
    08/02 17:00      0.00    587.86   2419363    491.00         0     20000     92.07    302.40      1.66     38.70    588.00     13.81
    08/02 18:00      0.00    587.84   2417351    490.96         0     20000     92.95    301.20      1.14     41.45    534.00     13.81
    08/02 19:00      0.00    587.83   2416351    490.95      3948     20000     91.53    345.90      1.20     48.22    337.00     13.81
    08/02 20:00      0.00    587.81   2414340    490.99      5514     20000     87.13     93.10      1.37     56.04    174.00     13.82
    08/02 21:00      0.00    587.81   2414340    490.88      9462     20000     83.95     95.40      2.28     62.33      8.00     13.82
    08/02 22:00      0.00    587.80   2413334    490.94      8645     20000     84.49    328.20      0.66     61.47      0.00     13.81
    08/02 23:00      0.00    587.77   2410322    491.03      ----     20000     78.67    102.30      1.51     81.98      0.00     13.81
    08/03 00:00      ----      ----      ----      ----      ----     20000      ----      ----      ----      ----      ----      ----